createdAt,value
2018-04-13T07:19:01.809Z,55.40
2018-04-13T07:20:01.832Z,53.88
2018-04-13T07:21:01.879Z,52.63
2018-04-13T07:22:01.929Z,52.59
2018-04-13T07:23:02.004Z,52.33
2018-04-13T07:24:02.062Z,50.66
2018-04-13T07:25:02.102Z,50.59
2018-04-13T07:26:02.135Z,49.73
2018-04-13T07:27:02.190Z,49.84
2018-04-13T07:28:02.231Z,48.52
2018-04-13T07:29:02.314Z,48.11
2018-04-13T07:30:02.334Z,48.11
2018-04-13T07:31:02.389Z,47.75
2018-04-13T07:32:02.435Z,47.75
2018-04-13T07:33:02.488Z,47.07
2018-04-13T07:34:02.576Z,47.75
2018-04-13T07:35:02.589Z,47.44
2018-04-13T07:36:02.645Z,48.97
2018-04-13T07:37:02.689Z,48.69
2018-04-13T07:38:02.744Z,48.76
2018-04-13T07:39:02.818Z,49.46
2018-04-13T07:40:02.873Z,49.07
2018-04-13T07:41:02.903Z,48.11
2018-04-13T07:42:02.951Z,48.08
2018-04-13T07:43:03.002Z,50.01
2018-04-13T07:44:03.052Z,48.49
2018-04-13T07:45:03.198Z,48.08
2018-04-13T07:46:03.157Z,48.21
2018-04-13T07:47:03.206Z,48.18
2018-04-13T07:48:03.259Z,49.15
2018-04-13T07:49:03.309Z,49.75
2018-04-13T07:50:03.387Z,48.40
2018-04-13T07:51:03.415Z,49.75
2018-04-13T07:52:03.467Z,49.70
2018-04-13T07:53:03.519Z,50.09
2018-04-13T07:54:03.575Z,50.35
2018-04-13T07:55:03.654Z,50.47
2018-04-13T07:56:03.676Z,50.57
2018-04-13T07:57:03.727Z,50.11
2018-04-13T07:58:03.793Z,51.94
2018-04-13T07:59:03.835Z,50.69
2018-04-13T08:00:03.907Z,51.46
2018-04-13T08:01:03.937Z,51.24
2018-04-13T08:02:03.986Z,50.69
2018-04-13T08:03:04.040Z,50.30
2018-04-13T08:04:04.090Z,49.53
2018-04-13T08:05:04.180Z,50.62
2018-04-13T08:06:04.194Z,50.62
2018-04-13T08:07:04.245Z,50.62
2018-04-13T08:08:04.322Z,48.79
2018-04-13T08:09:04.359Z,50.52
2018-04-13T08:10:04.410Z,49.75
2018-04-13T08:11:04.479Z,50.69
2018-04-13T08:12:04.512Z,51.34
2018-04-13T08:13:04.562Z,52.95
2018-04-13T08:14:04.614Z,53.50
2018-04-13T08:15:04.664Z,54.14
2018-04-13T08:16:04.742Z,55.68
2018-04-13T08:17:04.771Z,55.43
2018-04-13T08:18:04.860Z,55.49
2018-04-13T08:19:04.877Z,55.76
2018-04-13T08:20:04.925Z,57.07
2018-04-13T08:21:05.005Z,58.22
2018-04-13T08:22:05.029Z,58.42
2018-04-13T08:23:05.081Z,58.37
2018-04-13T08:24:05.134Z,56.74
2018-04-13T08:25:05.210Z,56.36
2018-04-13T08:26:05.239Z,56.52
2018-04-13T08:27:05.315Z,58.15
2018-04-13T08:28:05.339Z,58.92
2018-04-13T08:29:05.393Z,57.68
2018-04-13T08:30:06.006Z,58.45
2018-04-13T08:31:05.496Z,58.45
2018-04-13T08:32:05.562Z,58.83
2018-04-13T08:33:05.601Z,58.96
2018-04-13T08:34:05.650Z,60.50
2018-04-13T08:35:05.725Z,62.19
2018-04-13T08:36:05.762Z,62.16
2018-04-13T08:37:05.806Z,62.26
2018-04-13T08:38:05.858Z,63.25
2018-04-13T08:39:05.908Z,63.25
2018-04-13T08:40:05.989Z,61.08
2018-04-13T08:41:06.014Z,61.20
2018-04-13T08:42:06.063Z,60.05
2018-04-13T08:43:06.117Z,60.17
2018-04-13T08:44:06.185Z,60.37
2018-04-13T08:45:06.251Z,58.42
2018-04-13T08:46:06.271Z,59.28
2018-04-13T08:47:06.320Z,61.01
2018-04-13T08:48:06.372Z,60.43
2018-04-13T08:49:06.568Z,60.34
2018-04-13T08:50:06.512Z,60.56
2018-04-13T08:51:06.525Z,60.08
2018-04-13T08:52:06.618Z,58.92
2018-04-13T08:53:06.633Z,58.83
2018-04-13T08:54:06.715Z,58.76
2018-04-13T08:55:06.770Z,59.31
2018-04-13T08:56:06.783Z,59.31
2018-04-13T08:57:06.835Z,58.73
2018-04-13T08:58:06.913Z,60.14
2018-04-13T08:59:06.937Z,58.99
2018-04-13T09:00:06.989Z,60.63
2018-04-13T09:01:07.040Z,62.00
2018-04-13T09:02:07.093Z,61.43
2018-04-13T09:03:07.170Z,59.57
2018-04-13T09:04:07.196Z,59.86
2018-04-13T09:05:07.256Z,59.09
2018-04-13T09:06:07.324Z,59.76
2018-04-13T09:07:07.351Z,59.19
2018-04-13T09:08:07.449Z,60.88
2018-04-13T09:09:07.466Z,60.88
2018-04-13T09:10:07.508Z,62.45
2018-04-13T09:11:07.559Z,60.75
2018-04-13T09:12:07.613Z,60.94
2018-04-13T09:13:07.696Z,59.24
2018-04-13T09:14:07.756Z,59.15
2018-04-13T09:15:07.767Z,60.88
2018-04-13T09:16:07.818Z,58.76
2018-04-13T09:17:07.870Z,58.64
2018-04-13T09:18:07.969Z,58.67
2018-04-13T09:19:07.980Z,58.47
2018-04-13T09:20:08.034Z,57.90
2018-04-13T09:21:08.079Z,58.40
2018-04-13T09:22:08.132Z,57.95
2018-04-13T09:23:08.211Z,59.11
2018-04-13T09:24:08.238Z,57.89
2018-04-13T09:25:08.287Z,55.67
2018-04-13T09:26:08.340Z,56.99
2018-04-13T09:27:08.392Z,56.12
2018-04-13T09:28:08.479Z,58.22
2018-04-13T09:29:08.537Z,57.13
2018-04-13T09:30:08.552Z,58.09
2018-04-13T09:31:08.603Z,59.15
2018-04-13T09:32:08.657Z,58.95
2018-04-13T09:33:08.709Z,58.18
2018-04-13T09:34:08.786Z,58.60
2018-04-13T09:35:08.813Z,57.95
2018-04-13T09:36:08.867Z,56.48
2018-04-13T09:37:08.924Z,57.73
2018-04-13T09:38:08.973Z,57.76
2018-04-13T09:39:09.052Z,56.87
2018-04-13T09:40:09.080Z,57.42
2018-04-13T09:41:09.131Z,59.17
2018-04-13T09:42:09.184Z,58.79
2018-04-13T09:43:09.235Z,58.12
2018-04-13T09:44:09.314Z,57.64
2018-04-13T09:45:09.350Z,59.27
2018-04-13T09:46:09.421Z,57.90
2018-04-13T09:47:09.469Z,59.24
2018-04-13T09:48:09.506Z,58.83
2018-04-13T09:49:09.553Z,59.12
2018-04-13T09:50:09.607Z,60.17
2018-04-13T09:51:09.682Z,61.23
2018-04-13T09:52:09.713Z,59.50
2018-04-13T09:53:09.771Z,59.31
2018-04-13T09:54:09.816Z,58.99
2018-04-13T09:55:09.876Z,60.60
2018-04-13T09:56:09.960Z,62.84
2018-04-13T09:57:09.980Z,62.74
2018-04-13T09:58:10.030Z,61.68
2018-04-13T09:59:10.083Z,63.02
2018-04-13T10:00:10.132Z,61.78
2018-04-13T10:01:10.213Z,61.33
2018-04-13T10:02:10.261Z,60.56
2018-04-13T10:03:10.292Z,59.60
2018-04-13T10:04:10.347Z,60.37
2018-04-13T10:05:10.395Z,59.41
2018-04-13T10:06:10.446Z,60.08
2018-04-13T10:07:10.523Z,60.94
2018-04-13T10:08:10.554Z,59.31
2018-04-13T10:09:10.606Z,60.24
2018-04-13T10:10:10.658Z,60.14
2018-04-13T10:11:10.709Z,61.65
2018-04-13T10:12:10.786Z,61.75
2018-04-13T10:13:10.844Z,61.62
2018-04-13T10:14:10.864Z,62.77
2018-04-13T10:15:10.918Z,64.02
2018-04-13T10:16:10.971Z,63.06
2018-04-13T10:17:11.021Z,63.92
2018-04-13T10:18:11.098Z,63.83
2018-04-13T10:19:11.124Z,63.45
2018-04-13T10:20:11.178Z,64.05
2018-04-13T10:21:11.233Z,64.15
2018-04-13T10:22:11.297Z,64.09
2018-04-13T10:23:11.355Z,64.60
2018-04-13T10:24:11.390Z,63.38
2018-04-13T10:25:11.435Z,61.36
2018-04-13T10:26:11.487Z,59.94
2018-04-13T10:27:11.541Z,60.14
2018-04-13T10:28:11.624Z,59.69
2018-04-13T10:29:11.668Z,59.97
2018-04-13T10:30:11.694Z,57.67
2018-04-13T10:31:11.751Z,58.02
2018-04-13T10:32:11.803Z,56.32
2018-04-13T10:33:11.853Z,58.98
2018-04-13T10:34:11.929Z,57.83
2018-04-13T10:35:11.958Z,57.45
2018-04-13T10:36:12.018Z,59.27
2018-04-13T10:37:12.062Z,58.60
2018-04-13T10:38:12.116Z,58.34
2018-04-13T10:39:12.200Z,57.86
2018-04-13T10:40:12.223Z,59.20
2018-04-13T10:41:12.273Z,57.06
2018-04-13T10:42:12.327Z,56.58
2018-04-13T10:43:12.380Z,56.10
2018-04-13T10:44:12.453Z,58.70
2018-04-13T10:45:12.507Z,57.15
2018-04-13T10:46:12.539Z,56.58
2018-04-13T10:47:12.593Z,58.79
2018-04-13T10:48:12.642Z,57.25
2018-04-13T10:49:12.699Z,56.48
2018-04-13T10:50:12.791Z,57.83
2018-04-13T10:51:12.805Z,58.89
2018-04-13T10:52:12.854Z,57.54
2018-04-13T10:53:12.907Z,56.48
2018-04-13T10:54:12.962Z,59.01
2018-04-13T10:55:13.052Z,57.57
2018-04-13T10:56:13.103Z,57.21
2018-04-13T10:57:13.132Z,57.76
2018-04-13T10:58:13.173Z,58.82
2018-04-13T10:59:13.228Z,58.08
2018-04-13T11:00:13.283Z,56.18
2018-04-13T11:01:13.359Z,55.70
2018-04-13T11:02:13.392Z,55.29
2018-04-13T11:03:13.440Z,56.15
2018-04-13T11:04:13.496Z,56.76
2018-04-13T11:05:13.548Z,55.31
2018-04-13T11:06:13.625Z,56.37
2018-04-13T11:07:13.655Z,53.80
2018-04-13T11:08:13.716Z,52.16
2018-04-13T11:09:13.767Z,53.29
2018-04-13T11:10:13.817Z,53.67
2018-04-13T11:11:13.892Z,53.43
2018-04-13T11:12:13.955Z,53.78
2018-04-13T11:13:13.974Z,54.27
2018-04-13T11:14:14.028Z,56.87
2018-04-13T11:15:14.084Z,56.29
2018-04-13T11:16:14.144Z,56.16
2018-04-13T11:17:14.227Z,57.42
2018-04-13T11:18:14.244Z,57.25
2018-04-13T11:19:14.297Z,59.23
2018-04-13T11:20:14.356Z,55.70
2018-04-13T11:21:14.404Z,55.02
2018-04-13T11:22:14.499Z,52.55
2018-04-13T11:23:14.511Z,53.13
2018-04-13T11:24:14.573Z,53.80
2018-04-13T11:25:14.618Z,54.21
2018-04-13T11:26:14.675Z,53.95
2018-04-13T11:27:14.755Z,52.81
2018-04-13T11:28:14.805Z,52.43
2018-04-13T11:29:14.833Z,48.57
2018-04-13T11:30:14.888Z,48.95
2018-04-13T11:31:14.944Z,49.82
2018-04-13T11:32:14.999Z,49.41
2018-04-13T11:33:15.087Z,49.90
2018-04-13T11:34:15.108Z,51.63
2018-04-13T11:35:15.169Z,50.86
2018-04-13T11:36:15.218Z,54.55
2018-04-13T11:37:15.276Z,49.73
2018-04-13T11:38:15.352Z,48.37
2018-04-13T11:39:15.385Z,48.08
2018-04-13T11:40:15.443Z,48.08
2018-04-13T11:41:15.498Z,48.95
2018-04-13T11:42:15.553Z,49.02
2018-04-13T11:43:15.642Z,47.75
2018-04-13T11:44:15.663Z,48.97
2018-04-13T11:45:15.717Z,48.38
2018-04-13T11:46:15.773Z,51.07
2018-04-13T11:47:15.829Z,51.68
2018-04-13T11:48:15.922Z,50.16
2018-04-13T11:49:15.940Z,48.71
2018-04-13T11:50:15.996Z,49.77
2018-04-13T11:51:16.054Z,50.28
2018-04-13T11:52:16.109Z,49.80
2018-04-13T11:53:16.184Z,49.90
2018-04-13T11:54:16.243Z,49.02
2018-04-13T11:55:16.311Z,49.90
2018-04-13T11:56:16.330Z,48.93
2018-04-13T11:57:16.387Z,49.99
2018-04-13T11:58:16.451Z,49.15
2018-04-13T11:59:16.534Z,48.18
2018-04-13T12:00:16.553Z,50.21
2018-04-13T12:01:16.612Z,48.16
2018-04-13T12:02:16.665Z,47.67
2018-04-13T12:03:16.727Z,51.34
2018-04-13T12:04:16.806Z,49.70
2018-04-13T12:05:16.857Z,49.90
2018-04-13T12:06:16.893Z,49.12
2018-04-13T12:07:16.947Z,50.47
2018-04-13T12:08:17.008Z,50.18
2018-04-13T12:09:17.059Z,50.40
2018-04-13T12:10:17.139Z,49.92
2018-04-13T12:11:17.173Z,48.21
2018-04-13T12:12:17.232Z,49.65
2018-04-13T12:13:17.286Z,46.85
2018-04-13T12:14:17.343Z,50.91
2018-04-13T12:15:17.426Z,46.73
2018-04-13T12:16:17.458Z,46.92
2018-04-13T12:17:17.521Z,49.63
2018-04-13T12:18:17.570Z,47.70
2018-04-13T12:19:17.637Z,48.95
2018-04-13T12:20:17.712Z,47.02
2018-04-13T12:21:17.744Z,48.28
2018-04-13T12:22:17.801Z,50.50
2018-04-13T12:23:17.861Z,48.66
2018-04-13T12:24:17.916Z,48.79
2018-04-13T12:25:18.001Z,48.97
2018-04-13T12:26:18.032Z,46.83
2018-04-13T12:27:18.117Z,46.83
2018-04-13T12:28:18.145Z,46.15
2018-04-13T12:29:18.203Z,49.85
2018-04-13T12:30:18.261Z,47.22
2018-04-13T12:31:18.356Z,47.41
2018-04-13T12:32:18.400Z,48.16
2018-04-13T12:33:18.430Z,49.51
2018-04-13T12:34:18.492Z,48.25
2018-04-13T12:35:18.547Z,48.64
2018-04-13T12:36:18.607Z,48.64
2018-04-13T12:37:18.688Z,48.35
2018-04-13T12:38:18.740Z,49.60
2018-04-13T12:39:18.778Z,49.80
2018-04-13T12:40:18.834Z,47.75
2018-04-13T12:41:18.897Z,48.90
2018-04-13T12:42:30.599Z,48.03
2018-04-13T12:43:19.010Z,49.99
2018-04-13T12:44:19.066Z,50.09
2018-04-13T12:45:19.124Z,48.74
2018-04-13T12:46:19.912Z,49.44
2018-04-13T12:47:19.270Z,46.73
2018-04-13T12:48:19.301Z,45.09
2018-04-13T12:49:19.358Z,47.60
2018-04-13T12:50:19.416Z,45.57
2018-04-13T12:51:19.483Z,45.48
2018-04-13T12:52:19.554Z,45.67
2018-04-13T12:53:19.592Z,46.06
2018-04-13T12:54:19.712Z,44.49
2018-04-13T12:55:19.797Z,47.00
2018-04-13T12:56:19.781Z,47.09
2018-04-13T12:57:19.820Z,45.92
2018-04-13T12:58:19.882Z,47.55
2018-04-13T12:59:19.937Z,48.52
2018-04-13T13:00:20.022Z,47.67
2018-04-13T13:01:20.059Z,46.23
2018-04-13T13:02:20.116Z,46.13
2018-04-13T13:03:20.170Z,47.12
2018-04-13T13:04:20.231Z,45.50
2018-04-13T13:05:20.321Z,47.81
2018-04-13T13:06:20.350Z,45.31
2018-04-13T13:07:20.407Z,46.88
2018-04-13T13:08:20.465Z,44.56
2018-04-13T13:09:20.528Z,42.79
2018-04-13T13:10:20.624Z,45.79
2018-04-13T13:11:20.647Z,43.85
2018-04-13T13:12:20.703Z,45.89
2018-04-13T13:13:20.762Z,43.91
2018-04-13T13:14:20.821Z,44.59
2018-04-13T13:15:20.919Z,46.03
2018-04-13T13:16:20.940Z,47.09
2018-04-13T13:17:21.002Z,45.65
2018-04-13T13:18:21.056Z,45.55
2018-04-13T13:19:21.119Z,43.98
2018-04-13T13:20:21.201Z,46.59
2018-04-13T13:21:21.260Z,48.16
2018-04-13T13:22:21.298Z,46.13
2018-04-13T13:23:21.355Z,47.02
2018-04-13T13:24:21.416Z,45.65
2018-04-13T13:25:21.474Z,45.45
2018-04-13T13:26:21.559Z,48.37
2018-04-13T13:27:21.593Z,44.92
2018-04-13T13:28:21.652Z,45.21
2018-04-13T13:29:21.717Z,43.95
2018-04-13T13:30:21.771Z,43.95
2018-04-13T13:31:21.854Z,44.51
2018-04-13T13:32:21.894Z,43.72
2018-04-13T13:33:21.949Z,44.29
2018-04-13T13:34:22.012Z,44.39
2018-04-13T13:35:22.073Z,45.94
2018-04-13T13:36:22.158Z,45.45
2018-04-13T13:37:22.192Z,45.26
2018-04-13T13:38:22.252Z,45.65
2018-04-13T13:39:22.309Z,44.39
2018-04-13T13:40:22.370Z,43.81
2018-04-13T13:41:22.460Z,45.94
2018-04-13T13:42:22.495Z,48.66
2018-04-13T13:43:22.549Z,46.56
2018-04-13T13:44:22.614Z,47.14
2018-04-13T13:45:22.680Z,44.34
2018-04-13T13:46:22.783Z,42.68
2018-04-13T13:47:22.794Z,43.91
2018-04-13T13:48:22.849Z,44.87
2018-04-13T13:49:22.912Z,46.03
2018-04-13T13:50:22.978Z,44.97
2018-04-13T13:51:23.079Z,44.97
2018-04-13T13:52:23.093Z,44.78
2018-04-13T13:53:23.155Z,43.52
2018-04-13T13:54:23.211Z,44.01
2018-04-13T13:55:23.276Z,44.10
2018-04-13T13:56:23.357Z,43.79
2018-04-13T13:57:23.397Z,43.31
2018-04-13T13:58:23.464Z,43.31
2018-04-13T13:59:23.546Z,43.33
2018-04-13T14:00:23.577Z,43.14
2018-04-13T14:01:23.636Z,43.12
2018-04-13T14:02:23.749Z,42.73
2018-04-13T14:03:23.757Z,44.29
2018-04-13T14:04:23.826Z,43.52
2018-04-13T14:05:23.881Z,43.04
2018-04-13T14:06:23.938Z,43.14
2018-04-13T14:07:24.024Z,43.16
2018-04-13T14:08:24.060Z,42.29
2018-04-13T14:09:24.165Z,42.99
2018-04-13T14:10:24.186Z,43.57
2018-04-13T14:11:24.245Z,41.93
2018-04-13T14:12:24.303Z,42.43
2018-04-13T14:13:24.362Z,42.93
2018-04-13T14:14:24.466Z,42.16
2018-04-13T14:15:24.485Z,42.83
2018-04-13T14:16:24.548Z,41.19
2018-04-13T14:17:24.609Z,40.32
2018-04-13T14:18:24.697Z,39.36
2018-04-13T14:19:24.731Z,40.42
2018-04-13T14:20:24.804Z,38.48
2018-04-13T14:21:24.858Z,39.64
2018-04-13T14:22:24.917Z,40.23
2018-04-13T14:23:25.003Z,40.52
2018-04-13T14:24:25.041Z,39.45
2018-04-13T14:25:25.128Z,41.39
2018-04-13T14:26:25.165Z,40.40
2018-04-13T14:27:25.233Z,39.55
2018-04-13T14:28:25.295Z,38.70
2018-04-13T14:29:25.364Z,39.11
2018-04-13T14:30:25.490Z,39.88
2018-04-13T14:31:25.478Z,39.95
2018-04-13T14:32:25.551Z,38.58
2018-04-13T14:33:25.606Z,39.74
2018-04-13T14:34:25.693Z,38.76
2018-04-13T14:35:25.767Z,39.12
2018-04-13T14:36:25.795Z,39.87
2018-04-13T14:37:25.857Z,40.65
2018-04-13T14:38:25.923Z,40.86
2018-04-13T14:39:25.992Z,41.17
2018-04-13T14:40:26.072Z,41.46
2018-04-13T14:41:26.107Z,39.43
2018-04-13T14:42:26.170Z,39.36
2018-04-13T14:43:26.234Z,38.89
2018-04-13T14:44:26.296Z,39.18
2018-04-13T14:45:26.382Z,38.70
2018-04-13T14:46:26.421Z,38.58
2018-04-13T14:47:26.486Z,37.70
2018-04-13T14:48:26.548Z,38.28
2018-04-13T14:49:26.609Z,38.66
2018-04-13T14:50:26.695Z,38.18
2018-04-13T14:51:26.737Z,38.97
2018-04-13T14:52:26.803Z,39.62
2018-04-13T14:53:26.864Z,39.04
2018-04-13T14:54:26.927Z,37.96
2018-04-13T14:55:27.010Z,38.28
2018-04-13T14:56:27.054Z,39.72
2018-04-13T14:57:27.141Z,38.20
2018-04-13T14:58:27.179Z,37.67
2018-04-13T14:59:27.242Z,38.56
2018-04-13T15:00:27.304Z,38.35
2018-04-13T15:01:27.365Z,38.06
2018-04-13T15:02:27.452Z,38.74
2018-04-13T15:03:27.502Z,38.45
2018-04-13T15:04:27.556Z,39.41
2018-04-13T15:05:27.619Z,38.46
2018-04-13T15:06:27.688Z,38.08
2018-04-13T15:07:27.778Z,37.62
2018-04-13T15:08:27.804Z,37.92
2018-04-13T15:09:27.871Z,38.81
2018-04-13T15:10:27.930Z,37.55
2018-04-13T15:11:27.996Z,36.80
2018-04-13T15:12:28.079Z,37.28
2018-04-13T15:13:28.145Z,36.10
2018-04-13T15:14:28.185Z,36.00
2018-04-13T15:15:28.250Z,36.12
2018-04-13T15:16:28.313Z,36.68
2018-04-13T15:17:28.373Z,35.64
2018-04-13T15:18:28.463Z,35.83
2018-04-13T15:19:28.528Z,36.20
2018-04-13T15:20:28.563Z,36.88
2018-04-13T15:21:28.627Z,35.91
2018-04-13T15:22:28.693Z,35.91
2018-04-13T15:23:28.756Z,36.49
2018-04-13T15:24:28.861Z,35.50
2018-04-13T15:25:28.883Z,35.10
2018-04-13T15:26:28.948Z,36.53
2018-04-13T15:27:29.011Z,37.04
2018-04-13T15:28:29.078Z,37.52
2018-04-13T15:29:29.164Z,36.96
2018-04-13T15:30:29.204Z,36.18
2018-04-13T15:31:29.270Z,36.76
2018-04-13T15:32:29.332Z,36.57
2018-04-13T15:33:29.397Z,37.34
2018-04-13T15:34:29.483Z,36.57
2018-04-13T15:35:29.549Z,36.58
2018-04-13T15:36:29.595Z,36.68
2018-04-13T15:37:29.653Z,35.21
2018-04-13T15:38:29.717Z,36.16
2018-04-13T15:39:29.781Z,36.26
2018-04-13T15:40:29.887Z,36.65
2018-04-13T15:41:29.908Z,36.66
2018-04-13T15:42:29.972Z,36.07
2018-04-13T15:43:30.040Z,34.34
2018-04-13T15:44:30.103Z,35.21
2018-04-13T15:45:30.190Z,35.20
2018-04-13T15:46:30.263Z,35.97
2018-04-13T15:47:30.294Z,36.65
2018-04-13T15:48:30.362Z,36.34
2018-04-13T15:49:30.420Z,36.24
2018-04-13T15:50:30.487Z,36.53
2018-04-13T15:51:30.616Z,35.78
2018-04-13T15:52:30.613Z,36.28
2018-04-13T15:53:30.676Z,35.49
2018-04-13T15:54:30.747Z,35.20
2018-04-13T15:55:30.805Z,35.68
2018-04-13T15:56:30.911Z,35.20
2018-04-13T15:57:30.931Z,36.28
2018-04-13T15:58:30.998Z,35.70
2018-04-13T15:59:31.060Z,34.45
2018-04-13T16:00:31.123Z,35.13
2018-04-13T16:01:31.213Z,36.32
2018-04-13T16:02:31.283Z,35.10
2018-04-13T16:03:31.317Z,35.20
2018-04-13T16:04:31.382Z,35.29
2018-04-13T16:05:31.444Z,36.53
2018-04-13T16:06:31.507Z,38.04
2018-04-13T16:07:31.609Z,40.20
2018-04-13T16:08:31.635Z,41.24
2018-04-13T16:09:31.699Z,42.02
2018-04-13T16:10:31.762Z,41.92
2018-04-13T16:11:31.821Z,43.07
2018-04-13T16:12:31.918Z,42.09
2018-04-13T16:13:31.946Z,42.84
2018-04-13T16:14:32.007Z,41.88
2018-04-13T16:15:32.072Z,42.74
2018-04-13T16:16:32.127Z,42.65
2018-04-13T16:17:32.209Z,44.07
2018-04-13T16:18:32.270Z,42.80
2018-04-13T16:19:32.302Z,44.05
2018-04-13T16:20:32.367Z,44.72
2018-04-13T16:21:32.417Z,44.41
2018-04-13T16:22:32.478Z,47.39
2018-04-13T16:23:32.562Z,46.72
2018-04-13T16:24:32.591Z,48.35
2018-04-13T16:25:32.648Z,48.07
2018-04-13T16:26:32.714Z,46.81
2018-04-13T16:27:32.760Z,47.77
2018-04-13T16:28:32.845Z,47.46
2018-04-13T16:29:32.872Z,47.46
2018-04-13T16:30:32.923Z,48.04
2018-04-13T16:31:32.976Z,50.63
2018-04-13T16:32:33.035Z,50.25
2018-04-13T16:33:33.129Z,49.38
2018-04-13T16:34:33.139Z,50.92
2018-04-13T16:35:33.197Z,50.73
2018-04-13T16:36:33.252Z,50.73
2018-04-13T16:37:33.303Z,51.50
2018-04-13T16:38:33.380Z,50.99
2018-04-13T16:39:33.410Z,51.09
2018-04-13T16:40:33.488Z,48.90
2018-04-13T16:41:33.517Z,50.25
2018-04-13T16:42:33.570Z,49.26
2018-04-13T16:43:33.621Z,51.37
2018-04-13T16:44:33.674Z,53.30
2018-04-13T16:45:33.755Z,52.53
2018-04-13T16:46:33.780Z,51.57
2018-04-13T16:47:33.834Z,52.62
2018-04-13T16:48:33.884Z,51.47
2018-04-13T16:49:33.975Z,50.49
2018-04-13T16:50:34.037Z,49.72
2018-04-13T16:51:34.040Z,50.29
2018-04-13T16:52:34.100Z,53.08
2018-04-13T16:53:34.143Z,53.30
2018-04-13T16:54:34.222Z,52.53
2018-04-13T16:55:34.254Z,52.43
2018-04-13T16:56:34.329Z,50.03
2018-04-13T16:57:34.352Z,47.82
2018-04-13T16:58:34.406Z,47.44
2018-04-13T16:59:34.457Z,49.46
2018-04-13T17:00:34.511Z,49.74
2018-04-13T17:01:34.582Z,49.84
2018-04-13T17:02:34.610Z,48.49
2018-04-13T17:03:34.666Z,48.88
2018-04-13T17:04:34.718Z,48.57
2018-04-13T17:05:34.767Z,51.16
2018-04-13T17:06:34.852Z,50.68
2018-04-13T17:07:34.872Z,50.01
2018-04-13T17:08:34.922Z,49.60
2018-04-13T17:09:34.971Z,49.79
2018-04-13T17:10:35.024Z,50.37
2018-04-13T17:11:35.101Z,51.61
2018-04-13T17:12:35.151Z,48.44
2018-04-13T17:13:35.180Z,48.93
2018-04-13T17:14:35.232Z,48.35
2018-04-13T17:15:35.282Z,49.31
2018-04-13T17:16:35.372Z,50.56
2018-04-13T17:17:35.384Z,55.18
2018-04-13T17:18:35.436Z,58.79
2018-04-13T17:19:35.491Z,61.54
2018-04-13T17:20:35.540Z,62.49
2018-04-13T17:21:35.615Z,62.40
2018-04-13T17:22:35.662Z,60.29
2018-04-13T17:23:35.692Z,60.77
2018-04-13T17:24:35.743Z,61.25
2018-04-13T17:25:35.793Z,61.15
2018-04-13T17:26:35.847Z,61.44
2018-04-13T17:27:35.922Z,61.44
2018-04-13T17:28:35.975Z,61.63
2018-04-13T17:29:35.995Z,61.63
2018-04-13T17:30:36.046Z,60.77
2018-04-13T17:31:36.098Z,61.44
2018-04-13T17:32:36.174Z,61.54
2018-04-13T17:33:36.232Z,61.54
2018-04-13T17:34:36.271Z,59.91
2018-04-13T17:35:36.303Z,59.91
2018-04-13T17:36:36.351Z,59.91
2018-04-13T17:37:36.404Z,59.62
2018-04-13T17:38:36.484Z,59.62
2018-04-13T17:39:36.504Z,60.48
2018-04-13T17:40:36.552Z,60.38
2018-04-13T17:41:36.603Z,61.15
2018-04-13T17:42:36.651Z,61.82
2018-04-13T17:43:36.727Z,62.20
2018-04-13T17:44:36.755Z,61.69
2018-04-13T17:45:36.834Z,62.08
2018-04-13T17:46:36.852Z,63.13
2018-04-13T17:47:36.902Z,62.74
2018-04-13T17:48:36.953Z,63.13
2018-04-13T17:49:37.035Z,63.13
2018-04-13T17:50:37.053Z,63.03
2018-04-13T17:51:37.104Z,62.55
2018-04-13T17:52:37.153Z,62.46
2018-04-13T17:53:37.207Z,62.84
2018-04-13T17:54:37.280Z,62.84
2018-04-13T17:55:37.304Z,63.19
2018-04-13T17:56:37.380Z,63.67
2018-04-13T17:57:37.404Z,64.05
2018-04-13T17:58:37.457Z,63.96
2018-04-13T17:59:37.504Z,64.05
2018-04-13T18:00:37.580Z,63.76
2018-04-13T18:01:37.607Z,62.49
2018-04-13T18:02:37.653Z,61.82
2018-04-13T18:03:37.703Z,61.85
2018-04-13T18:04:37.752Z,62.90
2018-04-13T18:05:37.826Z,64.05
2018-04-13T18:06:37.859Z,64.91
2018-04-13T18:07:37.899Z,64.05
2018-04-13T18:08:37.951Z,63.86
2018-04-13T18:09:38.001Z,64.15
2018-04-13T18:10:38.070Z,63.67
2018-04-13T18:11:38.100Z,65.39
2018-04-13T18:12:38.177Z,65.74
2018-04-13T18:13:38.194Z,65.45
2018-04-13T18:14:38.248Z,64.69
2018-04-13T18:15:38.330Z,64.12
2018-04-13T18:16:38.347Z,63.16
2018-04-13T18:17:38.393Z,63.35
2018-04-13T18:18:38.442Z,62.87
2018-04-13T18:19:38.493Z,62.87
2018-04-13T18:20:38.572Z,63.26
2018-04-13T18:21:40.267Z,64.12
2018-04-13T18:22:38.643Z,64.12
2018-04-13T18:23:38.689Z,64.12
2018-04-13T18:24:38.742Z,64.98
2018-04-13T18:25:38.820Z,65.74
2018-04-13T18:26:39.791Z,65.45
2018-04-13T18:27:38.889Z,65.36
2018-04-13T18:28:38.941Z,66.03
2018-04-13T18:29:38.986Z,66.13
2018-04-13T18:30:39.075Z,66.66
2018-04-13T18:31:39.083Z,67.05
2018-04-13T18:32:39.136Z,66.66
2018-04-13T18:33:39.181Z,67.18
2018-04-13T18:34:39.248Z,67.43
2018-04-13T18:35:39.305Z,67.71
2018-04-13T18:36:39.332Z,67.94
2018-04-13T18:37:39.377Z,68.51
2018-04-13T18:38:39.474Z,69.66
2018-04-13T18:39:39.478Z,68.32
2018-04-13T18:40:39.526Z,68.61
2018-04-13T18:41:39.576Z,69.47
2018-04-13T18:42:39.627Z,70.58
2018-04-13T18:43:39.704Z,70.71
2018-04-13T18:44:39.721Z,71.53
2018-04-13T18:45:39.772Z,72.01
2018-04-13T18:46:39.819Z,72.62
2018-04-13T18:47:39.870Z,73.86
2018-04-13T18:48:39.942Z,73.83
2018-04-13T18:49:39.971Z,73.86
2018-04-13T18:50:40.014Z,74.73
2018-04-13T18:51:40.095Z,74.73
2018-04-13T18:52:40.112Z,75.01
2018-04-13T18:53:40.161Z,75.01
2018-04-13T18:54:40.212Z,75.20
2018-04-13T18:55:40.260Z,76.06
2018-04-13T18:56:40.334Z,75.78
2018-04-13T18:57:40.359Z,76.16
2018-04-13T18:58:40.407Z,75.74
2018-04-13T18:59:40.456Z,75.83
2018-04-13T19:00:40.505Z,77.08
2018-04-13T19:01:40.595Z,76.12
2018-04-13T19:02:40.602Z,75.87
2018-04-13T19:03:41.568Z,75.87
2018-04-13T19:04:40.701Z,76.45
2018-04-13T19:05:40.752Z,75.30
2018-04-13T19:06:40.826Z,75.39
2018-04-13T19:07:40.856Z,74.88
2018-04-13T19:08:40.909Z,74.59
2018-04-13T19:09:40.946Z,74.69
2018-04-13T19:10:40.996Z,75.54
2018-04-13T19:11:41.069Z,76.03
2018-04-13T19:12:41.136Z,75.26
2018-04-13T19:13:41.140Z,75.74
2018-04-13T19:14:41.200Z,75.07
2018-04-13T19:15:41.245Z,74.69
2018-04-13T19:16:41.318Z,74.88
2018-04-13T19:17:41.338Z,74.98
2018-04-13T19:18:41.388Z,75.26
2018-04-13T19:19:41.439Z,74.88
2018-04-13T19:20:41.484Z,75.74
2018-04-13T19:21:41.565Z,76.03
2018-04-13T19:22:41.605Z,75.83
2018-04-13T19:23:41.641Z,76.31
2018-04-13T19:24:41.680Z,75.64
2018-04-13T19:25:41.729Z,76.60
2018-04-13T19:26:41.808Z,75.64
2018-04-13T19:27:41.856Z,75.79
2018-04-13T19:28:41.877Z,75.42
2018-04-13T19:29:41.924Z,75.70
2018-04-13T19:30:41.975Z,75.98
2018-04-13T19:31:42.034Z,75.89
2018-04-13T19:32:42.110Z,76.84
2018-04-13T19:33:42.119Z,76.37
2018-04-13T19:34:42.172Z,76.84
2018-04-13T19:35:42.222Z,77.32
2018-04-13T19:36:42.270Z,78.56
2018-04-13T19:37:42.341Z,77.70
2018-04-13T19:38:42.423Z,77.89
2018-04-13T19:39:42.416Z,77.51
2018-04-13T19:40:42.466Z,77.89
2018-04-13T19:41:42.511Z,78.09
2018-04-13T19:42:42.584Z,78.75
2018-04-13T19:43:42.613Z,78.56
2018-04-13T19:44:42.685Z,78.75
2018-04-13T19:45:42.708Z,79.67
2018-04-13T19:46:42.758Z,78.85
2018-04-13T19:47:42.803Z,79.52
2018-04-13T19:48:42.880Z,79.90
2018-04-13T19:49:42.927Z,79.86
2018-04-13T19:50:42.948Z,80.05
2018-04-13T19:51:43.007Z,79.90
2018-04-13T19:52:43.061Z,80.19
2018-04-13T19:53:43.130Z,79.99
2018-04-13T19:54:43.159Z,79.96
2018-04-13T19:55:43.192Z,80.05
2018-04-13T19:56:43.243Z,80.05
2018-04-13T19:57:43.301Z,80.47
2018-04-13T19:58:43.362Z,80.91
2018-04-13T19:59:43.414Z,81.43
2018-04-13T20:00:43.438Z,81.58
2018-04-13T20:01:43.486Z,80.81
2018-04-13T20:02:43.531Z,81.33
2018-04-13T20:03:43.643Z,81.10
2018-04-13T20:04:43.672Z,80.91
2018-04-13T20:05:43.684Z,80.43
2018-04-13T20:06:43.728Z,80.72
2018-04-13T20:07:43.777Z,80.24
2018-04-13T20:08:43.826Z,79.77
2018-04-13T20:09:43.894Z,79.86
2018-04-13T20:10:43.945Z,80.43
2018-04-13T20:11:43.969Z,80.15